createdAt,value
2023-05-22T00:00:07.857Z,20.98
2023-05-22T00:05:08.062Z,20.67
2023-05-22T00:10:08.104Z,15.88
2023-05-22T00:15:08.248Z,20.50
2023-05-22T00:20:08.344Z,15.93
2023-05-22T00:25:08.321Z,18.17
2023-05-22T00:30:08.309Z,16.55
2023-05-22T00:35:08.339Z,14.27
2023-05-22T00:40:08.391Z,18.23
2023-05-22T00:45:08.359Z,18.67
2023-05-22T00:50:08.346Z,16.27
2023-05-22T00:55:08.351Z,20.90
2023-05-22T01:00:10.394Z,22.02
2023-05-22T01:05:08.212Z,19.23
2023-05-22T01:10:08.248Z,14.90
2023-05-22T01:15:16.704Z,16.55
2023-05-22T01:20:08.725Z,16.48
2023-05-22T01:25:08.717Z,23.88
2023-05-22T01:30:08.758Z,21.10
2023-05-22T01:35:08.754Z,15.82
2023-05-22T01:40:08.751Z,15.93
2023-05-22T01:45:08.744Z,20.83
2023-05-22T01:50:08.792Z,20.23
2023-05-22T01:55:08.868Z,21.23
2023-05-22T02:00:09.334Z,17.48
2023-05-22T02:05:08.284Z,17.92
2023-05-22T02:10:08.253Z,17.98
2023-05-22T02:15:08.255Z,21.05
2023-05-22T02:20:08.259Z,17.77
2023-05-22T02:25:08.226Z,20.60
2023-05-22T02:30:08.287Z,21.70
2023-05-22T02:35:08.310Z,17.25
2023-05-22T02:40:08.376Z,18.85
2023-05-22T02:45:08.441Z,17.67
2023-05-22T02:50:08.440Z,17.42
2023-05-22T02:55:08.438Z,17.17
2023-05-22T03:00:08.427Z,17.67
2023-05-22T03:05:08.446Z,17.38
2023-05-22T03:10:08.453Z,16.48
2023-05-22T03:15:08.441Z,19.52
2023-05-22T03:20:08.458Z,15.85
2023-05-22T03:25:08.464Z,15.07
2023-05-22T03:30:08.501Z,17.33
2023-05-22T03:35:08.527Z,17.67
2023-05-22T03:40:08.528Z,18.52
2023-05-22T03:45:08.549Z,17.25
2023-05-22T03:50:08.550Z,20.70
2023-05-22T03:55:08.536Z,19.90
2023-05-22T04:00:08.560Z,20.95
2023-05-22T04:05:02.780Z,22.90
2023-05-22T04:10:02.944Z,21.38
2023-05-22T04:15:02.157Z,17.60
2023-05-22T04:20:02.338Z,18.45
2023-05-22T04:25:02.578Z,16.30
2023-05-22T04:30:02.827Z,16.17
2023-05-22T04:35:03.028Z,18.63
2023-05-22T04:40:02.099Z,16.15
2023-05-22T04:45:02.258Z,18.20
2023-05-22T04:50:02.526Z,16.13
2023-05-22T04:55:03.888Z,16.63
2023-05-22T05:00:03.048Z,17.15
2023-05-22T05:05:02.390Z,16.52
2023-05-22T05:10:02.494Z,14.63
2023-05-22T05:15:02.584Z,20.38
2023-05-22T05:20:02.781Z,17.98
2023-05-22T05:25:03.011Z,16.15
2023-05-22T05:30:02.122Z,13.85
2023-05-22T05:35:02.400Z,14.75
2023-05-22T05:40:02.467Z,16.10
2023-05-22T05:45:02.569Z,17.33
2023-05-22T05:50:02.672Z,17.98
2023-05-22T05:55:02.800Z,20.08
2023-05-22T06:00:02.921Z,17.20
2023-05-22T06:05:02.087Z,14.20
2023-05-22T06:10:02.585Z,15.75
2023-05-22T06:15:02.766Z,15.88
2023-05-22T06:20:02.959Z,14.70
2023-05-22T06:25:02.156Z,16.20
2023-05-22T06:30:04.390Z,15.93
2023-05-22T06:35:02.975Z,16.08
2023-05-22T06:40:02.133Z,16.63
2023-05-22T06:45:02.496Z,16.40
2023-05-22T06:50:02.723Z,16.02
2023-05-22T06:55:02.900Z,16.48
2023-05-22T07:00:06.922Z,16.73
2023-05-22T07:05:03.226Z,17.30
2023-05-22T07:10:02.511Z,17.90
2023-05-22T07:15:02.664Z,22.10
2023-05-22T07:20:02.932Z,18.15
2023-05-22T07:25:03.144Z,20.65
2023-05-22T07:30:02.232Z,23.98
2023-05-22T07:35:02.395Z,20.67
2023-05-22T07:40:02.740Z,23.33
2023-05-22T07:45:02.857Z,24.40
2023-05-22T07:50:03.133Z,26.10
2023-05-22T07:55:02.474Z,24.00
2023-05-22T08:00:02.549Z,20.17
2023-05-22T08:05:02.639Z,23.73
2023-05-22T08:10:02.805Z,25.27
2023-05-22T08:15:02.991Z,23.30
2023-05-22T08:20:02.325Z,28.02
2023-05-22T08:25:02.588Z,21.92
2023-05-22T08:30:02.828Z,24.45
2023-05-22T08:35:03.049Z,29.23
2023-05-22T08:40:02.342Z,22.50
2023-05-22T08:45:02.511Z,25.02
2023-05-22T08:50:02.860Z,23.20
2023-05-22T08:55:03.020Z,23.63
2023-05-22T09:00:02.290Z,24.38
2023-05-22T09:05:02.552Z,23.30
2023-05-22T09:10:02.855Z,22.90
2023-05-22T09:15:03.245Z,20.30
2023-05-22T09:20:02.447Z,21.27
2023-05-22T09:25:02.613Z,21.25
2023-05-22T09:30:02.716Z,21.95
2023-05-22T09:35:03.144Z,21.42
2023-05-22T09:40:02.477Z,24.80
2023-05-22T09:45:02.671Z,21.48
2023-05-22T09:50:03.006Z,19.55
2023-05-22T09:55:02.128Z,22.38
2023-05-22T10:00:02.259Z,27.95
2023-05-22T10:05:02.532Z,16.15
2023-05-22T10:10:02.649Z,17.58
2023-05-22T10:15:02.723Z,17.63
2023-05-22T10:20:02.888Z,15.55
2023-05-22T10:25:03.015Z,18.98
2023-05-22T10:30:02.298Z,16.15
2023-05-22T10:35:02.524Z,18.38
2023-05-22T10:40:02.809Z,16.00
2023-05-22T10:45:02.958Z,15.93
2023-05-22T10:50:02.220Z,16.98
2023-05-22T10:55:02.310Z,20.73
2023-05-22T11:00:02.581Z,19.48
2023-05-22T11:05:02.809Z,15.13
2023-05-22T11:10:02.947Z,14.88
2023-05-22T11:15:02.084Z,12.85
2023-05-22T11:20:02.475Z,14.25
2023-05-22T11:25:02.751Z,13.07
2023-05-22T11:30:02.904Z,11.98
2023-05-22T11:35:02.983Z,12.43
2023-05-22T11:40:02.216Z,10.40
2023-05-22T11:45:02.672Z,9.45
2023-05-22T11:50:02.815Z,9.43
2023-05-22T11:55:03.026Z,9.85
2023-05-22T12:00:02.317Z,11.15
2023-05-22T12:05:02.669Z,10.30
2023-05-22T12:10:02.877Z,11.18
2023-05-22T12:15:03.042Z,14.05
2023-05-22T12:20:02.224Z,14.65
2023-05-22T12:25:02.353Z,12.52
2023-05-22T12:30:02.515Z,11.40
2023-05-22T12:35:02.725Z,8.95
2023-05-22T12:40:03.019Z,9.20
2023-05-22T12:45:02.188Z,10.20
2023-05-22T12:50:02.380Z,16.15
2023-05-22T12:55:02.494Z,14.73
2023-05-22T13:00:02.587Z,14.32
2023-05-22T13:05:02.746Z,16.42
2023-05-22T13:10:02.909Z,10.65
2023-05-22T13:15:03.051Z,10.48
2023-05-22T13:20:02.212Z,8.88
2023-05-22T13:25:02.385Z,13.32
2023-05-22T13:30:02.533Z,10.77
2023-05-22T13:35:02.785Z,10.18
2023-05-22T13:40:02.889Z,10.05
2023-05-22T13:45:03.137Z,12.07
2023-05-22T13:50:02.284Z,9.27
2023-05-22T13:55:02.413Z,11.63
2023-05-22T14:00:02.546Z,14.27
2023-05-22T14:05:02.704Z,12.68
2023-05-22T14:10:02.863Z,11.65
2023-05-22T14:15:03.158Z,11.95
2023-05-22T14:20:02.540Z,11.50
2023-05-22T14:25:02.749Z,12.02
2023-05-22T14:30:02.906Z,12.98
2023-05-22T14:35:02.992Z,11.88
2023-05-22T14:40:02.226Z,12.77
2023-05-22T14:45:02.328Z,14.07
2023-05-22T14:50:17.998Z,13.23
2023-05-22T14:55:02.128Z,18.95
2023-05-22T15:00:02.393Z,12.60
2023-05-22T15:05:02.534Z,12.13
2023-05-22T15:10:02.728Z,14.73
2023-05-22T15:15:02.854Z,22.10
2023-05-22T15:20:02.978Z,14.57
2023-05-22T15:25:02.026Z,15.75
2023-05-22T15:30:02.176Z,18.08
2023-05-22T15:35:02.313Z,9.80
2023-05-22T15:40:02.556Z,12.13
2023-05-22T15:45:02.589Z,12.40
2023-05-22T15:50:02.899Z,20.95
2023-05-22T15:55:02.080Z,17.35
2023-05-22T16:00:02.319Z,18.45
2023-05-22T16:05:02.407Z,13.73
2023-05-22T16:10:02.587Z,14.65
2023-05-22T16:15:04.512Z,13.73
2023-05-22T16:20:02.059Z,10.50
2023-05-22T16:25:02.169Z,14.15
2023-05-22T16:30:02.398Z,13.90
2023-05-22T16:35:02.535Z,13.02
2023-05-22T16:40:02.589Z,11.32
2023-05-22T16:45:02.692Z,12.75
2023-05-22T16:50:02.782Z,10.65
2023-05-22T16:55:02.895Z,13.27
2023-05-22T17:00:03.006Z,11.68
2023-05-22T17:05:02.394Z,9.88
2023-05-22T17:10:02.502Z,12.13
2023-05-22T17:15:02.740Z,10.52
2023-05-22T17:20:02.904Z,9.95
2023-05-22T17:25:02.988Z,13.43
2023-05-22T17:30:02.237Z,7.43
2023-05-22T17:35:02.603Z,6.15
2023-05-22T17:40:02.844Z,6.00
2023-05-22T17:45:02.928Z,6.85
2023-05-22T17:50:03.106Z,4.80
2023-05-22T17:55:02.284Z,8.27
2023-05-22T18:00:02.421Z,4.72
2023-05-22T18:05:05.295Z,6.03
2023-05-22T18:10:02.371Z,4.78
2023-05-22T18:15:02.440Z,3.28
2023-05-22T18:20:02.657Z,3.75
2023-05-22T18:25:02.944Z,4.07
2023-05-22T18:30:02.063Z,4.15
2023-05-22T18:35:02.068Z,3.85
2023-05-22T18:40:02.140Z,3.88
2023-05-22T18:45:02.270Z,3.50
2023-05-22T18:50:02.333Z,4.47
2023-05-22T18:55:02.589Z,4.88
2023-05-22T19:00:02.648Z,7.07
2023-05-22T19:05:02.893Z,5.82
2023-05-22T19:10:02.084Z,5.82
2023-05-22T19:15:02.222Z,3.83
2023-05-22T19:20:02.270Z,3.83
2023-05-22T19:25:02.414Z,4.80
2023-05-22T19:30:02.484Z,8.02
2023-05-22T19:35:02.527Z,7.75
2023-05-22T19:40:02.694Z,6.47
2023-05-22T19:45:02.854Z,5.18
2023-05-22T19:50:02.953Z,8.60
2023-05-22T19:55:02.100Z,7.43
2023-05-22T20:00:02.189Z,5.60
2023-05-22T20:05:02.423Z,4.78
2023-05-22T20:10:02.842Z,7.35
2023-05-22T20:15:03.027Z,4.15
2023-05-22T20:20:02.289Z,4.72
2023-05-22T20:25:02.555Z,4.10
2023-05-22T20:30:02.812Z,4.03
2023-05-22T20:35:03.020Z,3.72
2023-05-22T20:40:02.170Z,3.60
2023-05-22T20:45:02.391Z,3.85
2023-05-22T20:50:02.581Z,4.18
2023-05-22T20:55:02.720Z,4.30
2023-05-22T21:00:02.751Z,3.85
2023-05-22T21:05:15.674Z,4.32
2023-05-22T21:10:08.688Z,4.40
2023-05-22T21:15:08.668Z,4.22
2023-05-22T21:20:08.694Z,5.15
2023-05-22T21:25:08.692Z,5.38
2023-05-22T21:30:08.713Z,5.38
2023-05-22T21:35:08.712Z,5.03
2023-05-22T21:40:08.705Z,6.30
2023-05-22T21:45:08.762Z,6.85
2023-05-22T21:50:08.801Z,7.72
2023-05-22T21:55:08.816Z,6.55
2023-05-22T22:00:08.891Z,6.55
2023-05-22T22:05:08.887Z,7.50
2023-05-22T22:10:08.900Z,7.63
2023-05-22T22:15:08.896Z,6.38
2023-05-22T22:20:08.927Z,6.07
2023-05-22T22:25:08.899Z,6.93
2023-05-22T22:30:08.932Z,6.55
2023-05-22T22:35:07.938Z,6.38
2023-05-22T22:40:07.954Z,5.82
2023-05-22T22:45:07.963Z,5.10
2023-05-22T22:50:08.005Z,4.30
2023-05-22T22:55:08.016Z,3.70
2023-05-22T23:01:16.827Z,3.45
2023-05-22T23:05:08.950Z,3.38
2023-05-22T23:10:08.882Z,4.13
2023-05-22T23:15:08.900Z,3.90
2023-05-22T23:20:08.942Z,3.47
2023-05-22T23:25:07.947Z,3.33
2023-05-22T23:30:07.934Z,3.05
2023-05-22T23:35:08.969Z,3.33
2023-05-22T23:40:07.935Z,3.70
2023-05-22T23:45:07.920Z,5.22
2023-05-22T23:50:08.932Z,4.65
2023-05-22T23:55:07.921Z,4.13
